sensor_id;sensor_type;location;lat;lon;timestamp;P1;durP1;ratioP1;P2;durP2;ratioP2
57029;SDS011;42920;45.306;20.448;2022-11-13T00:00:52;32.55;;;17.73;;
57029;SDS011;42920;45.306;20.448;2022-11-13T00:03:18;32.63;;;16.40;;
57029;SDS011;42920;45.306;20.448;2022-11-13T00:08:09;30.60;;;17.17;;
57029;SDS011;42920;45.306;20.448;2022-11-13T00:13:01;28.42;;;16.63;;
57029;SDS011;42920;45.306;20.448;2022-11-13T00:15:27;27.98;;;16.48;;
57029;SDS011;42920;45.306;20.448;2022-11-13T00:17:53;32.47;;;16.83;;
57029;SDS011;42920;45.306;20.448;2022-11-13T00:20:18;28.83;;;15.88;;
57029;SDS011;42920;45.306;20.448;2022-11-13T00:25:10;27.98;;;14.85;;
57029;SDS011;42920;45.306;20.448;2022-11-13T00:30:01;27.05;;;14.82;;
57029;SDS011;42920;45.306;20.448;2022-11-13T00:32:28;33.35;;;17.55;;
57029;SDS011;42920;45.306;20.448;2022-11-13T00:34:54;30.45;;;16.17;;
57029;SDS011;42920;45.306;20.448;2022-11-13T00:37:20;27.98;;;16.55;;
57029;SDS011;42920;45.306;20.448;2022-11-13T00:39:46;31.95;;;16.63;;
57029;SDS011;42920;45.306;20.448;2022-11-13T00:42:12;29.92;;;16.95;;
57029;SDS011;42920;45.306;20.448;2022-11-13T00:44:38;31.60;;;16.05;;
57029;SDS011;42920;45.306;20.448;2022-11-13T00:47:04;30.38;;;15.82;;
57029;SDS011;42920;45.306;20.448;2022-11-13T00:49:30;29.02;;;16.05;;
57029;SDS011;42920;45.306;20.448;2022-11-13T00:54:24;22.65;;;13.20;;
57029;SDS011;42920;45.306;20.448;2022-11-13T00:56:49;28.25;;;15.15;;
57029;SDS011;42920;45.306;20.448;2022-11-13T00:59:15;27.63;;;14.65;;
57029;SDS011;42920;45.306;20.448;2022-11-13T01:04:07;26.58;;;14.90;;
57029;SDS011;42920;45.306;20.448;2022-11-13T01:06:32;26.77;;;14.85;;
57029;SDS011;42920;45.306;20.448;2022-11-13T01:11:25;29.25;;;15.25;;
57029;SDS011;42920;45.306;20.448;2022-11-13T01:13:52;29.88;;;16.13;;
57029;SDS011;42920;45.306;20.448;2022-11-13T01:16:20;30.73;;;16.40;;
57029;SDS011;42920;45.306;20.448;2022-11-13T01:18:47;30.52;;;16.73;;
57029;SDS011;42920;45.306;20.448;2022-11-13T01:21:14;31.67;;;16.20;;
57029;SDS011;42920;45.306;20.448;2022-11-13T01:23:42;29.52;;;17.45;;
57029;SDS011;42920;45.306;20.448;2022-11-13T01:28:34;31.33;;;17.98;;
57029;SDS011;42920;45.306;20.448;2022-11-13T01:33:28;28.65;;;16.25;;
57029;SDS011;42920;45.306;20.448;2022-11-13T01:35:58;29.40;;;16.33;;
57029;SDS011;42920;45.306;20.448;2022-11-13T01:38:32;32.55;;;17.60;;
57029;SDS011;42920;45.306;20.448;2022-11-13T01:40:58;32.50;;;15.85;;
57029;SDS011;42920;45.306;20.448;2022-11-13T01:46:10;22.98;;;13.13;;
57029;SDS011;42920;45.306;20.448;2022-11-13T01:48:43;32.50;;;17.45;;
57029;SDS011;42920;45.306;20.448;2022-11-13T01:51:34;30.73;;;17.08;;
57029;SDS011;42920;45.306;20.448;2022-11-13T01:54:04;31.38;;;17.48;;
57029;SDS011;42920;45.306;20.448;2022-11-13T01:56:33;34.55;;;17.77;;
57029;SDS011;42920;45.306;20.448;2022-11-13T01:59:16;33.95;;;20.15;;
57029;SDS011;42920;45.306;20.448;2022-11-13T02:01:45;34.53;;;19.98;;
57029;SDS011;42920;45.306;20.448;2022-11-13T02:09:24;36.90;;;20.33;;
57029;SDS011;42920;45.306;20.448;2022-11-13T02:11:52;38.08;;;22.42;;
57029;SDS011;42920;45.306;20.448;2022-11-13T02:14:18;34.58;;;19.80;;
57029;SDS011;42920;45.306;20.448;2022-11-13T02:16:48;41.50;;;20.98;;
57029;SDS011;42920;45.306;20.448;2022-11-13T02:19:29;39.28;;;20.15;;
57029;SDS011;42920;45.306;20.448;2022-11-13T02:24:52;38.70;;;20.33;;
57029;SDS011;42920;45.306;20.448;2022-11-13T02:27:22;40.50;;;22.05;;
57029;SDS011;42920;45.306;20.448;2022-11-13T02:29:53;38.60;;;21.05;;
57029;SDS011;42920;45.306;20.448;2022-11-13T02:34:44;42.00;;;19.88;;
57029;SDS011;42920;45.306;20.448;2022-11-13T02:39:37;43.38;;;22.27;;
57029;SDS011;42920;45.306;20.448;2022-11-13T02:42:02;45.35;;;23.55;;
57029;SDS011;42920;45.306;20.448;2022-11-13T02:44:28;44.05;;;23.42;;
57029;SDS011;42920;45.306;20.448;2022-11-13T02:49:19;38.58;;;21.92;;
57029;SDS011;42920;45.306;20.448;2022-11-13T02:54:11;42.40;;;21.95;;
57029;SDS011;42920;45.306;20.448;2022-11-13T02:59:02;36.17;;;20.77;;
57029;SDS011;42920;45.306;20.448;2022-11-13T03:03:53;44.13;;;22.95;;
57029;SDS011;42920;45.306;20.448;2022-11-13T03:08:45;38.85;;;23.10;;
57029;SDS011;42920;45.306;20.448;2022-11-13T03:13:36;38.40;;;21.55;;
57029;SDS011;42920;45.306;20.448;2022-11-13T03:18:46;37.20;;;20.83;;
57029;SDS011;42920;45.306;20.448;2022-11-13T03:23:39;28.63;;;15.38;;
57029;SDS011;42920;45.306;20.448;2022-11-13T03:26:07;47.08;;;22.65;;
57029;SDS011;42920;45.306;20.448;2022-11-13T03:28:35;37.85;;;21.35;;
57029;SDS011;42920;45.306;20.448;2022-11-13T03:31:01;41.38;;;22.10;;
57029;SDS011;42920;45.306;20.448;2022-11-13T03:33:28;47.17;;;24.20;;
57029;SDS011;42920;45.306;20.448;2022-11-13T03:35:53;45.58;;;23.92;;
57029;SDS011;42920;45.306;20.448;2022-11-13T03:40:45;45.10;;;24.33;;
57029;SDS011;42920;45.306;20.448;2022-11-13T03:45:37;42.70;;;20.48;;
57029;SDS011;42920;45.306;20.448;2022-11-13T03:50:28;43.05;;;21.95;;
57029;SDS011;42920;45.306;20.448;2022-11-13T03:55:19;41.60;;;22.70;;
57029;SDS011;42920;45.306;20.448;2022-11-13T04:00:12;45.17;;;21.60;;
57029;SDS011;42920;45.306;20.448;2022-11-13T04:02:38;49.33;;;22.27;;
57029;SDS011;42920;45.306;20.448;2022-11-13T04:07:30;46.95;;;22.17;;
57029;SDS011;42920;45.306;20.448;2022-11-13T04:12:21;42.38;;;23.15;;
57029;SDS011;42920;45.306;20.448;2022-11-13T04:17:12;43.63;;;23.23;;
57029;SDS011;42920;45.306;20.448;2022-11-13T04:22:03;45.75;;;23.73;;
57029;SDS011;42920;45.306;20.448;2022-11-13T04:26:54;47.33;;;25.08;;
57029;SDS011;42920;45.306;20.448;2022-11-13T04:31:46;49.20;;;25.67;;
57029;SDS011;42920;45.306;20.448;2022-11-13T04:36:37;45.28;;;24.77;;
57029;SDS011;42920;45.306;20.448;2022-11-13T04:41:28;49.17;;;22.63;;
57029;SDS011;42920;45.306;20.448;2022-11-13T04:44:12;47.53;;;23.48;;
57029;SDS011;42920;45.306;20.448;2022-11-13T04:49:04;48.55;;;24.10;;
57029;SDS011;42920;45.306;20.448;2022-11-13T04:53:55;45.00;;;23.35;;
57029;SDS011;42920;45.306;20.448;2022-11-13T04:58:46;44.63;;;21.98;;
57029;SDS011;42920;45.306;20.448;2022-11-13T05:03:38;41.15;;;21.70;;
57029;SDS011;42920;45.306;20.448;2022-11-13T05:08:30;50.83;;;22.95;;
57029;SDS011;42920;45.306;20.448;2022-11-13T05:13:22;85.50;;;31.98;;
57029;SDS011;42920;45.306;20.448;2022-11-13T05:18:13;48.80;;;25.48;;
57029;SDS011;42920;45.306;20.448;2022-11-13T05:23:05;59.25;;;28.13;;
57029;SDS011;42920;45.306;20.448;2022-11-13T05:27:56;71.68;;;28.80;;
57029;SDS011;42920;45.306;20.448;2022-11-13T05:30:22;69.60;;;29.38;;
57029;SDS011;42920;45.306;20.448;2022-11-13T05:32:49;65.22;;;28.58;;
57029;SDS011;42920;45.306;20.448;2022-11-13T05:35:16;40.17;;;21.92;;
57029;SDS011;42920;45.306;20.448;2022-11-13T05:40:08;46.90;;;24.33;;
57029;SDS011;42920;45.306;20.448;2022-11-13T05:42:34;47.33;;;24.02;;
57029;SDS011;42920;45.306;20.448;2022-11-13T05:47:25;35.92;;;19.40;;
57029;SDS011;42920;45.306;20.448;2022-11-13T05:52:16;36.28;;;17.95;;
57029;SDS011;42920;45.306;20.448;2022-11-13T05:57:08;33.65;;;17.63;;
57029;SDS011;42920;45.306;20.448;2022-11-13T06:01:59;31.98;;;17.70;;
